VGEG/CGP METAR and TAF weather

Enter ICAO airport designator
Station Type Date Time Source
VGEG METAR 2019/11/14 04:00 UTC NOAA

VGEG 140400Z 03003KT 5000 HZ FEW018 28/22 Q1015 NOSIG


Station Type Date Time Source
VGEG Decoded METAR 2019/11/14 04:00 UTC NOAA

Chittagong Patenga , Bangladesh (VGEG) 22-16N 091-49E 6M
Nov 13, 2019 - 11:00 PM EST / 2019.11.14 0400 UTC
Wind: from the NNE (030 degrees) at 3 MPH (3 KT):0
Visibility: 3 mile(s):0
Sky conditions: mostly clear
Weather: haze
Temperature: 82 F (28 C)
Dew Point: 71 F (22 C)
Relative Humidity: 69%
Pressure (altimeter): 29.97 in. Hg (1015 hPa)
ob: VGEG 140400Z 03003KT 5000 HZ FEW018 28/22 Q1015 NOSIG
cycle: 4

Station Type Date Time Source
VGEG TAF 2019/11/13 18:36 UTC NOAA

TAF TAF VGEG 131700Z 1318/1424 33008KT 4000 HZ SCT018
TEMPO 1320/1404 00000KT 2000 FG/BR SCT010 BKN100
BECMG 1405/1407 28005KT 4000 HZ SCT018
BECMG 1419/1421 02005KT 2000 FG/BR SCT010 BKN100

Example: see airport list